首页
METAR-TAF:

METAR-TAF

机场 :

Adirondack Regional Airport

Saranac Lake, 紐約州, 美国

纬度: 44-23-35N, 经度: 074-12-10W, 海拔: 507米

当前天气观测

该预报发布于27分钟前的15:51 UTC
风速7节,风向西南
温度 -5°C
湿度 68%
气压 1023 hPa
能見度: 16.1公里
阴天层高于9000英尺

METAR: KSLK 081551Z AUTO 23007KT 10SM OVC090 M05/M10 A3020 RMK AO2 SLP259 T10501100

时间: 11:18 (16:18 UTC)

预报

该预报发布于4小时和42分钟前的11:36 UTC
预报有效从08日的 12点(UTC)到 09日的 12点(UTC)
风速节,风向
能見度: 10公里
少量云层高于20000英尺
从 08日的 1500点(UTC)
风速9节,风向南转西南,有时为18节阵风
能見度: 10公里
散云层高于12000英尺
从 08日的 1700点(UTC)
风速11节,风向南转西南
能見度: 10公里
多云层高于9000英尺
从 09日的 0000点(UTC)
风速12节,风向南转西南,有时为26节阵风
能見度: 10公里
阴天层高于7000英尺
从 09日的 0400点(UTC)
风速17节,风向南转西南,有时为26节阵风
能見度: 10公里
阴天层高于3000英尺
附近有阵雨

TAF: KSLK 081136Z 0812/0912 00000KT P6SM FEW200 FM081500 21009G18KT P6SM SCT120 FM081700 21011KT P6SM BKN090 WS020/23040KT FM090000 21012G26KT P6SM OVC070 WS020/23055KT FM090400 21017G26KT P6SM VCSH OVC030 WS020/25055KT

超过4000个机场的气象观测和天气预报(METAR&TAF报告)。

可查询的气象台以黄色和红色小点在地图上表示。

将鼠标移到小点上方,可查看气象台名称。

然后点击查看天气观测和预报。

如需切换地图:点击带黑十字的绿色按钮放大地图;点击带横线的绿色按钮缩小地图;或者点击绿色箭头查看邻近地区的地图。


METAR-TAF: